Port Orford, OR

10:39 AM PDT on August 28, 2016 (GMT -0700)
NOS_NWLON | | Change Station

Elev 0 ft 42.74 °N, 124.50 °W | Updated 33 minutes ago

Overcast
Overcast
52 °F
Feels Like 52 °F
N
9
Wind Variable Wind from South
Gusts 11.0 mph

Today
High -- | Low -- °F
--% Chance of Precip.
Yesterday
High -- | Low -- °F
Precip. -- in
Pressure 30.11 in
Visibility 2.5 miles
Clouds Overcast 400 ft
Dew Point Not available.
Humidity Not available.
Rainfall in
Snow Depth Not available.
6:39 AM 7:58 PM
Waning Crescent, 14% visible
METAR KOTH 281735Z 27006KT 2 1/2SM OVC004 13/12 A3011 RMK AO1 VIS 20 1/V20 1/
Pressure 30.11 in
Visibility 2.5 miles
Clouds Overcast 400 ft
Dew Point Not available.
Humidity Not available.
Rainfall in
Snow Depth Not available.
6:39 AM 7:58 PM
Waning Crescent, 14% visible
METAR KOTH 281735Z 27006KT 2 1/2SM OVC004 13/12 A3011 RMK AO1 VIS 20 1/V20 1/

10-Day Weather Forecast

Almanac

Astronomy

Aug. 28, 2016 Rise Set
Actual Time
Civil Twilight
Nautical Twilight
Astronomical Twilight
Moon
Length of Visible Light
Length of Day
Tomorrow will be .
, % of the Moon is Illuminated

Today's Extremes

State Highs State Lows

Community

WunderPhotos

Upload Photos

1,935,635 photos uploaded!

WunderBlog® & News

Nearby

Air Quality

  Air Quality AQ Index Pollutant
Not available.

Snow Depth

Station Depth Elevation

Earthquake Activity

City Distance Mag. Time & Date
Minimum magnitude displayed is 2.5.

Coastal Water Temperatures

Place Temperature

Stations

Nearby Weather Stations

Station Location Temp. Windchill Dew Point Humidity Wind Precip. Elev Updated Type
                   

Watches & Warnings

There are currently no watches in effect.